Tres Piedras, NM (87577)

10:36 AM MDT on August 20, 2014 (GMT -0600)
RAWS TAOS PORTABLE #2 NM US | Change Station
CLOSE
Current Station
Personal Weather Station
Location: Tres Piedras, NM
Elevation: 8339 ft
Nearby Weather Stations

Elev 8339 ft 36.73 °N, 105.93 °W | Updated 56 minutes ago

Partly Cloudy
Partly Cloudy
62 °F
Feels Like 62 °F
N
6
Wind Variable Wind from SW
Gusts 9.0 mph

Today
High -- | Low -- °F
--% Chance of Precip.
Yesterday
High -- | Low -- °F
Precip. -- in
6:25 AM 7:48 PM
Waning Crescent, 20% visible
Pressure 30.20 in
Visibility 10.0 miles
Clouds Few 7000 ft
Dew Point 48 °F
Humidity 61%
Rainfall 0.00 in
Snow Depth 0 in
UV 6 out of 12
Pollen 10.30 out of 12
Air Quality Not available.
Flu Activity Not available.
METAR KSKX 201615Z AUTO 22009KT 10SM FEW070 20/08 A3020 RMK AO1

More Conditions Fewer Conditions

Pressure 30.20 in
Visibility 10.0 miles
Clouds Few 7000 ft
Dew Point 48 °F
Humidity 61%
Rainfall 0.00 in
Snow Depth 0 in
UV 6 out of 12
Pollen 10.30 out of 12
Air Quality Not available.
Flu Activity Not available.
METAR KSKX 201615Z AUTO 22009KT 10SM FEW070 20/08 A3020 RMK AO1

More Conditions Fewer Conditions

10-Day Weather Forecast

Almanac

Astronomy

Aug. 20, 2014 Rise Set
Actual Time 6:25 AM MDT 7:48 PM MDT
Civil Twilight 5:58 AM MDT 8:15 PM MDT
Nautical Twilight 5:25 AM MDT 8:47 PM MDT
Astronomical Twilight 4:51 AM MDT 9:21 PM MDT
Moon 2:10 AM MDT 4:32 PM MDT
Length of Visible Light 14h 17m
Length of Day
13h 23m
Tomorrow will be 2m 6s shorter.
Waning Crescent, 20% of the Moon is Illuminated
Today
Waning Crescent
Aug 25
New
Sep 2
First Quarter
Sep 8
Full
Sep 15
Last Quarter

Today's Extremes

State Highs State Lows

Community

WunderPhotos

Upload Photos

1,745,689 photos uploaded!

Nearby

Snow Depth

Station Depth Elevation
Hopewell 0 in 10000 ft
Bateman 0 in 9300 ft
Gallegos Peak 0 in 9800 ft
Chamita 0 in 8400 ft
Tolby 0 in 10180 ft

Earthquake Activity

City Distance Mag. Time & Date
No recent earthquake activity has been reported nearby.
Minimum magnitude displayed is 2.5.

Coastal Water Temperatures

Place Temperature
No Stations Reporting

Nearby Weather Stations